Impacts METAR Board INFO
IDs:

KMDW - Chicago/Midway Intl, IL, US

Updated at: 1814 UTC 22 Jan 2018
Potential Impact None Slight Moderate High
Time22/06Z 22/07Z 22/08Z 22/09Z 22/10Z 22/11Z 22/12Z 22/13Z 22/14Z 22/15Z 22/16Z 22/17Z 22/18Z
VIS0.5 0.25 0.13 4 2.5 2.5 2 4 8 10 10 10 3
CIG3 2 2 3 4 3 5 28 12 10 12 13 9
CoverOVXOVXOVXOVCOVCOVCOVCOVCOVCOVCOVCOVCOVC
FltCatLIFRLIFRLIFRLIFRLIFRLIFRIFRMVFRMVFRMVFRMVFRMVFRIFR
WXFGFG-RA FG-RA BRBRRA BRTSRA BRRA BR--------BR
WDir18016011012012011060110170180180180190
WSpd6 3 5 6 7 3 4 7 11 19 15 16 14
WGst-- -- -- -- -- -- -- -- -- 25 27 27 22
Raw hourly METARs
KMDW 220553Z 18006KT 1/2SM R31C/4500V5500FT FG VV003 09/09 A2983 RMK AO2 SLP104 60001 T00890089 10089 20056 400890039 56019
KMDW 220653Z 16003KT 1/4SM R31C/1800V2200FT FG VV002 09/09 A2979 RMK AO2 SLP093 T00890089
KMDW 220753Z 11005KT 1/8SM R31C/1600V1800FT -RA FG VV002 08/08 A2977 RMK AO2 DZB25E49RAB49 SLP083 P0001 T00780078
KMDW 220853Z 12006KT 4SM -RA BR OVC003 08/08 A2974 RMK AO2 RAE08B47DZB08E35 SLP074 P0000 60001 T00830083 56029
KMDW 220953Z 12007KT 2 1/2SM BR OVC004 08/08 A2969 RMK AO2 RAE21 SLP058 P0001 T00830083
KMDW 221053Z 11003KT 2 1/2SM RA BR BKN003 OVC010 09/09 A2967 RMK AO2 LTG DSNT ALQDS SLP051 P0019 T00890089 $
KMDW 221153Z 06004KT 2SM R31C/4500VP6000FT TSRA BR BKN005CB BKN012 OVC023 08/08 A2965 RMK AO2 LTG DSNT S-NW TSB34 SLP045 OCNL LTGICCG OHD TS OHD MOV NE P0018 60039 70040 T00830083 10094 20078 56029 $
KMDW 221253Z 11007KT 4SM RA BR FEW010 SCT017 OVC028 09/09 A2962 RMK AO2 LTG DSNT NE AND E TSE39 SLP033 OCNL LTGICCG DSNT NE-E CB DSNT NE-E P0018 T00890089 $
KMDW 221353Z 17011KT 8SM OVC012 10/10 A2958 RMK AO2 RAE45 SLP019 P0003 T01000100
KMDW 221453Z 18019G25KT 10SM OVC010 11/10 A2958 RMK AO2 SLP021 P0001 60022 T01110100 55012
KMDW 221553Z 18015G27KT 10SM OVC012 11/11 A2958 RMK AO2 PK WND 18027/1547 SLP019 T01110106
KMDW 221653Z 18016G27KT 10SM OVC013 12/09 A2956 RMK AO2 PK WND 17027/1648 SLP013 T01170094
KMDW 221753Z 19014G22KT 3SM BR OVC009 11/10 A2953 RMK AO2 SLP000 60022 T01110100 10117 20083 58019